Grand Junction, CO (81504)

8:05 PM MDT on September 04, 2015 (GMT -0600)
Meadowvale | | Change Station
CLOSE
Current Station
Personal Weather Station
Location: Grand Junction, CO
Elevation: 4642 ft
Nearby Weather Stations

Elev 4642 ft 39.07 °N, 108.48 °W | Updated 1 second ago

Partly Cloudy
Partly Cloudy
68.9 °F
Feels Like 68.9 °F
N
1.6
Wind Variable Wind from WSW
Gusts 4.5 mph

Today
High -- | Low -- °F
--% Chance of Precip.
Yesterday
High -- | Low -- °F
Precip. -- in
6:45 AM 7:40 PM
Waning Gibbous, 54% visible
Pressure 29.79 in
Visibility 10.0 miles
Clouds Clear
Dew Point 60 °F
Humidity 73%
Rainfall 0.07 in
Snow Depth Not available.
UV 0 out of 12
Pollen 9.00 out of 12
Air Quality Not available.
Flu Activity Not available.
METAR KGJT 050153Z 11015KT 10SM CLR 19/14 A2996 RMK AO2 SLP088 T01890139
Pressure 29.79 in
Visibility 10.0 miles
Clouds Clear
Dew Point 60 °F
Humidity 73%
Rainfall 0.07 in
Snow Depth Not available.
UV 0 out of 12
Pollen 9.00 out of 12
Air Quality Not available.
Flu Activity Not available.
METAR KGJT 050153Z 11015KT 10SM CLR 19/14 A2996 RMK AO2 SLP088 T01890139

10-Day Weather Forecast

×

Almanac

Astronomy

Sep. 04, 2015 Rise Set
Actual Time
Civil Twilight
Nautical Twilight
Astronomical Twilight
Moon
Length of Visible Light
Length of Day
Tomorrow will be .
, % of the Moon is Illuminated

Today's Extremes

State Highs State Lows

Community

WunderPhotos

Upload Photos

1,852,382 photos uploaded!

WunderBlogs® & News

Nearby

Air Quality

  Air Quality AQ Index Pollutant
Not available.

Snow Depth

Station Depth Elevation

Earthquake Activity

City Distance Mag. Time & Date
Minimum magnitude displayed is 2.5.

Coastal Water Temperatures

Place Temperature

Stations

Nearby Weather Stations

Station Location Temp. Windchill Dew Point Humidity Wind Precip. Elev Updated Type